Time;durP1;ratioP1;P1;durP2;ratioP2;P2;SDS_P1;SDS_P2;PMS_P1;PMS_P2;Temp;Humidity;BMP_temperature;BMP_pressure;BME280_temperature;BME280_humidity;BME280_pressure;Samples;Min_cycle;Max_cycle;Signal;HPM_P1;HPM_P2
2021/12/20 00:00:19;;;;;;;3.07;1.47;;;;;;;;;;4976415;28;20041;-77
2021/12/20 00:02:49;;;;;;;2.42;1.00;;;;;;;;;;4978698;28;20034;-75
2021/12/20 00:05:15;;;;;;;3.70;1.20;;;;;;;;;;4974360;28;20094;-77
2021/12/20 00:07:41;;;;;;;2.77;1.40;;;;;;;;;;4977272;28;20094;-75
2021/12/20 00:10:07;;;;;;;3.90;1.20;;;;;;;;;;4973754;28;20070;-77
2021/12/20 00:12:33;;;;;;;2.93;1.30;;;;;;;;;;4971845;28;20038;-77
2021/12/20 00:14:59;;;;;;;5.33;1.40;;;;;;;;;;4970154;28;20026;-77
2021/12/20 00:17:24;;;;;;;2.87;1.23;;;;;;;;;;4971501;28;20035;-77
2021/12/20 00:19:49;;;;;;;4.50;1.50;;;;;;;;;;4971502;28;20450;-77
2021/12/20 00:22:15;;;;;;;4.43;1.13;;;;;;;;;;4969780;28;20026;-78
2021/12/20 00:24:41;;;;;;;5.53;1.90;;;;;;;;;;4969999;28;20031;-77
2021/12/20 00:27:08;;;;;;;3.97;1.40;;;;;;;;;;4970914;28;20038;-75
2021/12/20 00:29:35;;;;;;;7.67;1.50;;;;;;;;;;4969709;28;20114;-75
2021/12/20 00:32:01;;;;;;;2.80;1.00;;;;;;;;;;4971524;28;20370;-78
2021/12/20 00:34:27;;;;;;;4.23;1.30;;;;;;;;;;4970921;28;20458;-77
2021/12/20 00:36:56;;;;;;;4.57;1.23;;;;;;;;;;4971477;28;20022;-76
2021/12/20 00:42:06;;;;;;;7.20;1.63;;;;;;;;;;4971303;28;20093;-74
2021/12/20 00:44:32;;;;;;;3.77;1.73;;;;;;;;;;4971381;28;20507;-76
2021/12/20 00:46:57;;;;;;;5.20;1.40;;;;;;;;;;4971203;28;20391;-78
2021/12/20 00:49:23;;;;;;;5.60;2.00;;;;;;;;;;4969985;28;20387;-77
2021/12/20 00:51:48;;;;;;;11.00;3.77;;;;;;;;;;4971088;28;20030;-77
2021/12/20 00:54:14;;;;;;;3.63;1.57;;;;;;;;;;4969870;28;20143;-75
2021/12/20 00:56:40;;;;;;;4.27;1.40;;;;;;;;;;4985974;28;20530;-77
2021/12/20 00:59:05;;;;;;;4.77;1.40;;;;;;;;;;4970860;28;20524;-77
2021/12/20 01:01:31;;;;;;;4.93;1.47;;;;;;;;;;4971200;28;20391;-77
2021/12/20 01:03:56;;;;;;;5.63;1.60;;;;;;;;;;4969442;28;20168;-76
2021/12/20 01:06:22;;;;;;;3.70;1.47;;;;;;;;;;4969452;28;20034;-78
2021/12/20 01:08:49;;;;;;;5.50;1.63;;;;;;;;;;4971045;28;20034;-77
2021/12/20 01:11:21;;;;;;;4.30;1.90;;;;;;;;;;4970684;28;20039;-78
2021/12/20 01:13:46;;;;;;;8.30;2.78;;;;;;;;;;4976077;28;20042;-76
2021/12/20 01:16:13;;;;;;;4.70;1.80;;;;;;;;;;4981805;28;20034;-76
2021/12/20 01:18:39;;;;;;;5.17;1.67;;;;;;;;;;4976983;28;20014;-77
2021/12/20 01:21:04;;;;;;;5.87;1.90;;;;;;;;;;4972078;28;20371;-76
2021/12/20 01:23:30;;;;;;;8.43;2.20;;;;;;;;;;4970708;28;20498;-77
2021/12/20 01:25:56;;;;;;;3.20;1.90;;;;;;;;;;4969438;28;20402;-79
2021/12/20 01:28:22;;;;;;;7.87;1.80;;;;;;;;;;4970191;28;20102;-76
2021/12/20 01:30:48;;;;;;;3.47;1.90;;;;;;;;;;4969066;28;20105;-76
2021/12/20 01:33:13;;;;;;;3.50;1.70;;;;;;;;;;4969190;28;20037;-77
2021/12/20 01:35:40;;;;;;;9.50;2.97;;;;;;;;;;4969387;28;20027;-78
2021/12/20 01:38:07;;;;;;;2.43;1.57;;;;;;;;;;4970626;28;20109;-76
2021/12/20 01:40:35;;;;;;;3.77;1.33;;;;;;;;;;4970344;28;20039;-78
2021/12/20 01:43:00;;;;;;;7.63;1.90;;;;;;;;;;4973039;28;20059;-76
2021/12/20 01:45:28;;;;;;;5.70;1.97;;;;;;;;;;4973854;28;20231;-77
2021/12/20 01:48:08;;;;;;;9.77;2.47;;;;;;;;;;4973125;28;20105;-78
2021/12/20 01:53:23;;;;;;;4.40;1.93;;;;;;;;;;4974057;28;20402;-78
2021/12/20 01:55:50;;;;;;;9.90;2.37;;;;;;;;;;4973685;28;20105;-79
2021/12/20 01:58:16;;;;;;;3.73;2.10;;;;;;;;;;4972362;28;20030;-77
2021/12/20 02:03:26;;;;;;;7.07;2.30;;;;;;;;;;4973428;28;20042;-76
2021/12/20 02:05:56;;;;;;;6.03;1.97;;;;;;;;;;4973687;28;20027;-75
2021/12/20 02:08:24;;;;;;;4.53;1.80;;;;;;;;;;4971925;28;20054;-77
2021/12/20 02:10:56;;;;;;;2.90;1.47;;;;;;;;;;4973387;28;20023;-77
2021/12/20 02:13:24;;;;;;;6.75;1.40;;;;;;;;;;4971887;28;20026;-76
2021/12/20 02:15:51;;;;;;;5.33;1.57;;;;;;;;;;4971888;28;20097;-77
2021/12/20 02:18:17;;;;;;;4.03;1.93;;;;;;;;;;4973099;28;20479;-76
2021/12/20 02:20:43;;;;;;;4.47;1.47;;;;;;;;;;4973770;28;20038;-76
2021/12/20 02:23:09;;;;;;;4.60;1.60;;;;;;;;;;4973232;28;20042;-77
2021/12/20 02:25:36;;;;;;;10.83;1.50;;;;;;;;;;4972968;28;20102;-77
2021/12/20 02:28:07;;;;;;;2.17;1.10;;;;;;;;;;4973347;28;20459;-78
2021/12/20 02:38:33;;;;;;;3.57;1.27;;;;;;;;;;4972967;28;20050;-76
2021/12/20 02:41:07;;;;;;;1.73;1.17;;;;;;;;;;4972867;28;20033;-77
2021/12/20 02:43:39;;;;;;;2.83;1.13;;;;;;;;;;4972761;28;20035;-77
2021/12/20 02:46:23;;;;;;;4.63;1.10;;;;;;;;;;4971527;28;20030;-77
2021/12/20 02:48:49;;;;;;;2.60;1.07;;;;;;;;;;4971452;28;20038;-76
2021/12/20 02:51:14;;;;;;;9.10;1.43;;;;;;;;;;4971104;28;20391;-77
2021/12/20 02:53:40;;;;;;;3.70;1.10;;;;;;;;;;4972360;28;20034;-76
2021/12/20 02:56:05;;;;;;;1.27;0.77;;;;;;;;;;4972639;28;20402;-76
2021/12/20 02:58:31;;;;;;;3.53;1.10;;;;;;;;;;4972634;28;20030;-76
2021/12/20 03:00:56;;;;;;;4.40;0.90;;;;;;;;;;4971273;28;20027;-77
2021/12/20 03:03:24;;;;;;;5.23;1.30;;;;;;;;;;4970910;28;20623;-76
2021/12/20 03:05:50;;;;;;;6.63;1.30;;;;;;;;;;4971190;28;20022;-77
2021/12/20 03:08:15;;;;;;;1.63;0.93;;;;;;;;;;4970730;28;20476;-76
2021/12/20 03:10:42;;;;;;;3.73;1.00;;;;;;;;;;4972475;28;20464;-78
2021/12/20 03:13:09;;;;;;;5.83;1.50;;;;;;;;;;4972542;28;20027;-78
2021/12/20 03:15:35;;;;;;;1.30;1.20;;;;;;;;;;4970934;28;20092;-77
2021/12/20 03:18:01;;;;;;;3.83;1.00;;;;;;;;;;4971109;28;20141;-76
2021/12/20 03:20:26;;;;;;;2.57;0.87;;;;;;;;;;4972294;28;20034;-76
2021/12/20 03:22:52;;;;;;;6.63;1.37;;;;;;;;;;4970875;28;20033;-77
2021/12/20 03:25:18;;;;;;;2.57;0.97;;;;;;;;;;4972033;28;20031;-77
2021/12/20 03:27:43;;;;;;;2.67;1.00;;;;;;;;;;4971203;28;20026;-77
2021/12/20 03:30:11;;;;;;;4.73;1.83;;;;;;;;;;4984988;28;20031;-77
2021/12/20 03:32:37;;;;;;;2.97;0.97;;;;;;;;;;4983757;28;20031;-77
2021/12/20 03:35:05;;;;;;;3.73;1.60;;;;;;;;;;4983074;28;20049;-77
2021/12/20 03:37:30;;;;;;;2.87;1.20;;;;;;;;;;4976862;28;20534;-77
2021/12/20 03:39:56;;;;;;;4.23;1.50;;;;;;;;;;4970684;28;20054;-76
2021/12/20 03:42:22;;;;;;;3.93;1.83;;;;;;;;;;4975889;28;20027;-76
2021/12/20 03:44:48;;;;;;;4.30;0.97;;;;;;;;;;4974153;28;20109;-78
2021/12/20 03:47:14;;;;;;;6.03;1.37;;;;;;;;;;4975399;28;20162;-76
2021/12/20 03:49:41;;;;;;;3.83;1.37;;;;;;;;;;4979659;28;20511;-77
2021/12/20 03:52:08;;;;;;;6.70;1.37;;;;;;;;;;4972437;28;20030;-78
2021/12/20 03:54:34;;;;;;;3.07;0.90;;;;;;;;;;4953968;28;20102;-77
2021/12/20 03:57:00;;;;;;;4.80;1.20;;;;;;;;;;4971341;28;20042;-77
2021/12/20 03:59:28;;;;;;;2.20;1.10;;;;;;;;;;4970096;28;20034;-76
2021/12/20 04:01:53;;;;;;;4.00;1.10;;;;;;;;;;4971650;28;20030;-77
2021/12/20 04:04:19;;;;;;;4.23;1.27;;;;;;;;;;4971405;28;20160;-77
2021/12/20 04:06:45;;;;;;;4.63;0.80;;;;;;;;;;4971574;28;20038;-77
2021/12/20 04:09:10;;;;;;;6.33;1.40;;;;;;;;;;4971429;28;20088;-77
2021/12/20 04:11:36;;;;;;;5.67;1.10;;;;;;;;;;4971610;28;20030;-76
2021/12/20 04:14:01;;;;;;;4.20;1.20;;;;;;;;;;4971085;28;20041;-76
2021/12/20 04:16:29;;;;;;;1.73;1.03;;;;;;;;;;4971196;28;20030;-76
2021/12/20 04:18:55;;;;;;;2.93;1.53;;;;;;;;;;4969805;28;20026;-78
2021/12/20 04:21:21;;;;;;;3.27;1.07;;;;;;;;;;4969840;28;20099;-75
2021/12/20 04:23:47;;;;;;;4.50;1.30;;;;;;;;;;4969755;28;20034;-78
2021/12/20 04:26:12;;;;;;;4.33;1.53;;;;;;;;;;4971136;28;20038;-77
2021/12/20 04:28:38;;;;;;;7.90;1.40;;;;;;;;;;4969662;28;20027;-77
2021/12/20 04:31:03;;;;;;;8.23;1.50;;;;;;;;;;4971024;28;20085;-76
2021/12/20 04:33:29;;;;;;;1.17;0.93;;;;;;;;;;4969808;28;20035;-77
2021/12/20 04:35:54;;;;;;;5.70;1.77;;;;;;;;;;4969796;28;20023;-76
2021/12/20 04:38:21;;;;;;;3.03;1.07;;;;;;;;;;4970771;28;20114;-76
2021/12/20 04:40:46;;;;;;;4.30;1.33;;;;;;;;;;4971120;28;20026;-77
2021/12/20 04:43:12;;;;;;;3.07;1.20;;;;;;;;;;4969689;28;20031;-77
2021/12/20 04:45:38;;;;;;;3.67;1.17;;;;;;;;;;4971059;28;20423;-76
2021/12/20 04:48:04;;;;;;;2.00;1.30;;;;;;;;;;4969335;28;20042;-77
2021/12/20 04:50:30;;;;;;;5.07;1.47;;;;;;;;;;4971086;28;20133;-77
2021/12/20 04:52:57;;;;;;;5.10;1.63;;;;;;;;;;4971541;28;20081;-77
2021/12/20 04:55:24;;;;;;;3.93;1.20;;;;;;;;;;4969997;28;20487;-78
2021/12/20 04:57:50;;;;;;;1.23;1.10;;;;;;;;;;4969760;28;20501;-77
2021/12/20 05:00:20;;;;;;;4.60;1.77;;;;;;;;;;4971731;28;20026;-76
2021/12/20 05:02:46;;;;;;;5.93;1.60;;;;;;;;;;4986826;28;20054;-76
2021/12/20 05:05:12;;;;;;;7.90;2.30;;;;;;;;;;4971535;28;20041;-76
2021/12/20 05:07:39;;;;;;;6.70;1.40;;;;;;;;;;4974335;28;20118;-75
2021/12/20 05:10:12;;;;;;;2.50;1.50;;;;;;;;;;4976392;28;20035;-77
2021/12/20 05:12:39;;;;;;;7.53;2.07;;;;;;;;;;4984184;28;20030;-77
2021/12/20 05:15:05;;;;;;;2.73;1.23;;;;;;;;;;4985339;28;20023;-76
2021/12/20 05:17:30;;;;;;;2.23;0.97;;;;;;;;;;4980078;28;20035;-78
2021/12/20 05:19:56;;;;;;;1.70;1.00;;;;;;;;;;4973762;28;20362;-77
2021/12/20 05:22:21;;;;;;;2.10;1.20;;;;;;;;;;4956880;28;20064;-76
2021/12/20 05:24:47;;;;;;;1.33;1.07;;;;;;;;;;4974735;28;20399;-77
2021/12/20 05:27:13;;;;;;;4.87;1.30;;;;;;;;;;4973090;28;20030;-77
2021/12/20 05:29:38;;;;;;;6.87;1.80;;;;;;;;;;4974143;28;20034;-77
2021/12/20 05:32:06;;;;;;;6.90;1.17;;;;;;;;;;4973393;28;20035;-76
2021/12/20 05:34:32;;;;;;;5.60;1.80;;;;;;;;;;4973153;28;20096;-73
2021/12/20 05:36:57;;;;;;;3.37;1.33;;;;;;;;;;4973755;28;20450;-74
2021/12/20 05:39:23;;;;;;;6.87;2.10;;;;;;;;;;4974199;28;20047;-73
2021/12/20 05:41:48;;;;;;;4.63;1.73;;;;;;;;;;4974076;28;20559;-74
2021/12/20 05:44:14;;;;;;;10.63;1.63;;;;;;;;;;4974121;28;20117;-73
2021/12/20 05:46:39;;;;;;;11.23;2.07;;;;;;;;;;4972544;28;20468;-73
2021/12/20 05:49:05;;;;;;;8.60;1.60;;;;;;;;;;4972293;28;20059;-73
2021/12/20 05:51:30;;;;;;;2.23;1.37;;;;;;;;;;4956344;28;20038;-73
2021/12/20 05:53:56;;;;;;;5.30;1.67;;;;;;;;;;4973666;28;20204;-73
2021/12/20 05:56:21;;;;;;;5.03;1.77;;;;;;;;;;4972542;28;20061;-73
2021/12/20 05:58:47;;;;;;;3.30;1.27;;;;;;;;;;4972521;28;20027;-73
2021/12/20 06:01:12;;;;;;;6.33;2.20;;;;;;;;;;4972548;28;20147;-73
2021/12/20 06:03:38;;;;;;;6.00;2.13;;;;;;;;;;4973526;28;20050;-72
2021/12/20 06:06:04;;;;;;;3.40;1.53;;;;;;;;;;4973641;28;20031;-73
2021/12/20 06:08:29;;;;;;;5.33;1.70;;;;;;;;;;4973617;28;20135;-73
2021/12/20 06:10:55;;;;;;;3.57;1.50;;;;;;;;;;4972185;28;20030;-73
2021/12/20 06:13:20;;;;;;;3.93;1.53;;;;;;;;;;4972228;28;20034;-73
2021/12/20 06:15:46;;;;;;;4.17;1.07;;;;;;;;;;4973395;28;20486;-73
2021/12/20 06:18:12;;;;;;;4.40;1.60;;;;;;;;;;4972526;28;20019;-73
2021/12/20 06:20:39;;;;;;;5.53;2.03;;;;;;;;;;4972995;28;20026;-74
2021/12/20 06:23:05;;;;;;;4.20;1.23;;;;;;;;;;4974078;28;20073;-73
2021/12/20 06:25:30;;;;;;;4.87;1.60;;;;;;;;;;4972027;28;20479;-74
2021/12/20 06:27:56;;;;;;;3.87;1.43;;;;;;;;;;4971240;28;20027;-74
2021/12/20 06:30:21;;;;;;;2.77;1.57;;;;;;;;;;4973039;28;20179;-73
2021/12/20 06:32:47;;;;;;;4.03;1.53;;;;;;;;;;4971775;28;20037;-74
2021/12/20 06:35:13;;;;;;;7.30;1.80;;;;;;;;;;4972881;28;20030;-73
2021/12/20 06:37:43;;;;;;;3.50;1.53;;;;;;;;;;4965922;28;20092;-72
2021/12/20 06:40:09;;;;;;;3.37;1.47;;;;;;;;;;4961234;28;20400;-73
2021/12/20 06:42:37;;;;;;;6.03;1.60;;;;;;;;;;4952056;29;20048;-74
2021/12/20 06:45:05;;;;;;;7.13;1.70;;;;;;;;;;4935712;29;20039;-74
2021/12/20 06:47:31;;;;;;;5.83;1.67;;;;;;;;;;4951398;28;20035;-73
2021/12/20 06:49:56;;;;;;;4.03;1.50;;;;;;;;;;4953175;28;20039;-73
2021/12/20 06:52:22;;;;;;;4.90;1.30;;;;;;;;;;4953885;28;20368;-73
2021/12/20 06:54:49;;;;;;;8.97;1.77;;;;;;;;;;4952914;28;20062;-74
2021/12/20 06:57:15;;;;;;;3.90;1.50;;;;;;;;;;4951481;28;20035;-74
2021/12/20 06:59:40;;;;;;;6.00;1.83;;;;;;;;;;4952486;28;20035;-72
2021/12/20 07:02:06;;;;;;;2.90;1.60;;;;;;;;;;4951866;28;20067;-74
2021/12/20 07:04:33;;;;;;;10.83;1.70;;;;;;;;;;4952904;28;20348;-73
2021/12/20 07:06:59;;;;;;;4.90;2.00;;;;;;;;;;4952678;28;20031;-73
2021/12/20 07:09:24;;;;;;;6.27;1.50;;;;;;;;;;4952790;28;20038;-73
2021/12/20 07:11:50;;;;;;;8.73;1.67;;;;;;;;;;4954088;28;20034;-73
2021/12/20 07:14:15;;;;;;;5.23;1.70;;;;;;;;;;4972256;28;20058;-73
2021/12/20 07:16:41;;;;;;;3.57;1.63;;;;;;;;;;4960130;28;20050;-74
2021/12/20 07:19:07;;;;;;;5.40;2.10;;;;;;;;;;4967398;28;20165;-73
2021/12/20 07:21:33;;;;;;;3.33;1.93;;;;;;;;;;4959419;28;20443;-74
2021/12/20 07:23:58;;;;;;;4.13;2.00;;;;;;;;;;4976679;28;20479;-74
2021/12/20 07:26:24;;;;;;;6.33;1.70;;;;;;;;;;4959218;28;20037;-72
2021/12/20 07:28:50;;;;;;;7.23;1.80;;;;;;;;;;4957878;28;20038;-73
2021/12/20 07:31:15;;;;;;;5.23;1.70;;;;;;;;;;4968091;28;20030;-73
2021/12/20 07:33:42;;;;;;;5.73;1.53;;;;;;;;;;4962908;28;20031;-73
2021/12/20 07:36:08;;;;;;;6.83;1.83;;;;;;;;;;4961409;28;20039;-72
2021/12/20 07:38:35;;;;;;;7.40;1.77;;;;;;;;;;4957470;28;20114;-74
2021/12/20 07:41:01;;;;;;;5.57;2.30;;;;;;;;;;4963955;28;20101;-73
2021/12/20 07:43:27;;;;;;;2.87;1.80;;;;;;;;;;4964367;28;20031;-74
2021/12/20 07:45:53;;;;;;;3.27;1.77;;;;;;;;;;4968706;28;20038;-75
2021/12/20 07:48:20;;;;;;;7.43;1.80;;;;;;;;;;4966477;28;20053;-75
2021/12/20 07:50:47;;;;;;;2.97;1.80;;;;;;;;;;4963459;28;20045;-74
2021/12/20 07:53:14;;;;;;;6.53;2.17;;;;;;;;;;4955201;28;20118;-72
2021/12/20 07:55:40;;;;;;;7.50;2.30;;;;;;;;;;4962553;28;20073;-73
2021/12/20 07:58:06;;;;;;;7.67;2.73;;;;;;;;;;4962256;28;20066;-74
2021/12/20 08:00:32;;;;;;;3.73;1.93;;;;;;;;;;4961260;28;20042;-73
2021/12/20 08:02:58;;;;;;;5.27;1.93;;;;;;;;;;4963558;28;20074;-73
2021/12/20 08:05:25;;;;;;;3.80;1.97;;;;;;;;;;4964436;28;20804;-71
2021/12/20 08:07:51;;;;;;;12.37;2.97;;;;;;;;;;4965090;28;20106;-74
2021/12/20 08:10:22;;;;;;;6.30;2.10;;;;;;;;;;4965989;28;20265;-74
2021/12/20 08:12:50;;;;;;;8.23;2.10;;;;;;;;;;4971933;28;20056;-74
2021/12/20 08:15:16;;;;;;;4.67;2.33;;;;;;;;;;4964737;28;20125;-74
2021/12/20 08:17:42;;;;;;;3.77;2.07;;;;;;;;;;4963327;28;20499;-73
2021/12/20 08:20:09;;;;;;;6.07;1.87;;;;;;;;;;4964108;28;20027;-74
2021/12/20 08:22:35;;;;;;;8.03;2.40;;;;;;;;;;4945002;28;20917;-75
2021/12/20 08:25:01;;;;;;;2.70;1.73;;;;;;;;;;4979429;28;20085;-74
2021/12/20 08:27:26;;;;;;;6.03;2.53;;;;;;;;;;4963607;28;20113;-74
2021/12/20 08:29:52;;;;;;;7.80;2.07;;;;;;;;;;4963073;28;20483;-75
2021/12/20 08:32:18;;;;;;;8.03;2.90;;;;;;;;;;4960825;28;20035;-74
2021/12/20 08:34:43;;;;;;;2.73;2.03;;;;;;;;;;4963006;28;20477;-73
2021/12/20 08:37:09;;;;;;;7.63;2.53;;;;;;;;;;4964930;28;20038;-75
2021/12/20 08:39:35;;;;;;;6.47;2.73;;;;;;;;;;4962555;28;20063;-73
2021/12/20 08:42:03;;;;;;;7.13;2.40;;;;;;;;;;4960768;28;20057;-72
2021/12/20 08:44:29;;;;;;;6.17;2.30;;;;;;;;;;4960876;28;20093;-74
2021/12/20 08:46:55;;;;;;;7.43;2.40;;;;;;;;;;4964372;28;20070;-73
2021/12/20 08:49:21;;;;;;;8.43;2.37;;;;;;;;;;4969599;28;20376;-73
2021/12/20 08:51:47;;;;;;;6.47;2.77;;;;;;;;;;4967912;28;20039;-74
2021/12/20 08:54:16;;;;;;;4.17;2.37;;;;;;;;;;4964161;28;20109;-73
2021/12/20 08:56:42;;;;;;;9.60;2.47;;;;;;;;;;4963524;28;20053;-72
2021/12/20 08:59:09;;;;;;;10.60;3.10;;;;;;;;;;4969032;28;20127;-73
2021/12/20 09:01:38;;;;;;;11.33;2.73;;;;;;;;;;4967697;28;20040;-72
2021/12/20 09:04:06;;;;;;;6.67;2.83;;;;;;;;;;4965086;28;20031;-72
2021/12/20 09:06:34;;;;;;;9.67;2.67;;;;;;;;;;4976540;28;20038;-73
2021/12/20 09:09:03;;;;;;;9.37;2.60;;;;;;;;;;4964638;28;20469;-74
2021/12/20 09:11:29;;;;;;;12.13;2.83;;;;;;;;;;4965504;28;20038;-71
2021/12/20 09:13:55;;;;;;;8.13;2.97;;;;;;;;;;4965336;28;20076;-73
2021/12/20 09:16:21;;;;;;;4.67;2.50;;;;;;;;;;4969094;28;20396;-72
2021/12/20 09:18:48;;;;;;;4.70;2.20;;;;;;;;;;4958667;28;20500;-73
2021/12/20 09:21:15;;;;;;;13.67;2.60;;;;;;;;;;4967885;28;20045;-73
2021/12/20 09:23:41;;;;;;;3.93;2.20;;;;;;;;;;4962666;28;20034;-72
2021/12/20 09:26:06;;;;;;;2.33;2.13;;;;;;;;;;4957431;28;20041;-73
2021/12/20 09:28:35;;;;;;;3.83;2.17;;;;;;;;;;4962586;28;20129;-74
2021/12/20 09:31:02;;;;;;;6.30;2.70;;;;;;;;;;4976956;28;20169;-72
2021/12/20 09:33:28;;;;;;;10.53;2.80;;;;;;;;;;4974923;28;20062;-73
2021/12/20 09:35:54;;;;;;;5.00;2.77;;;;;;;;;;4968325;28;20073;-73
2021/12/20 09:38:22;;;;;;;6.37;2.77;;;;;;;;;;4967736;28;20079;-74
2021/12/20 09:43:55;;;;;;;5.13;1.90;;;;;;;;;;4961988;28;21432;-74
2021/12/20 09:46:24;;;;;;;5.13;2.23;;;;;;;;;;4962046;28;20038;-72
2021/12/20 09:48:51;;;;;;;6.63;2.53;;;;;;;;;;4966668;28;20049;-73
2021/12/20 09:51:17;;;;;;;7.20;2.23;;;;;;;;;;4968411;28;20133;-75
2021/12/20 09:53:43;;;;;;;6.37;2.00;;;;;;;;;;4965089;28;20876;-74
2021/12/20 09:56:10;;;;;;;5.70;2.43;;;;;;;;;;4968547;28;20468;-74
2021/12/20 09:58:38;;;;;;;13.53;2.60;;;;;;;;;;4968230;28;20145;-74
2021/12/20 10:01:06;;;;;;;3.83;2.27;;;;;;;;;;4968469;28;20054;-73
2021/12/20 10:03:32;;;;;;;4.47;2.47;;;;;;;;;;4972476;28;20041;-73
2021/12/20 10:05:58;;;;;;;6.83;2.60;;;;;;;;;;4966071;28;20119;-73
2021/12/20 10:08:33;;;;;;;6.67;2.33;;;;;;;;;;4962925;28;20122;-73
2021/12/20 10:11:03;;;;;;;5.07;2.23;;;;;;;;;;4969491;28;20027;-72
2021/12/20 10:13:31;;;;;;;7.67;2.97;;;;;;;;;;4964909;28;20054;-74
2021/12/20 10:15:59;;;;;;;6.47;2.03;;;;;;;;;;4969273;28;20065;-74
2021/12/20 10:18:26;;;;;;;8.07;2.10;;;;;;;;;;4963747;28;20046;-74
2021/12/20 10:20:57;;;;;;;7.47;2.00;;;;;;;;;;4963578;28;20070;-73
2021/12/20 10:23:26;;;;;;;6.73;3.03;;;;;;;;;;4961199;28;20058;-73
2021/12/20 10:25:56;;;;;;;2.70;1.77;;;;;;;;;;4976199;28;20064;-73
2021/12/20 10:28:25;;;;;;;5.07;2.30;;;;;;;;;;4965064;28;20035;-73
2021/12/20 10:30:56;;;;;;;12.70;3.27;;;;;;;;;;4964291;28;20045;-74
2021/12/20 10:33:23;;;;;;;4.27;2.67;;;;;;;;;;4957123;28;20097;-73
2021/12/20 10:35:52;;;;;;;8.20;2.77;;;;;;;;;;4962116;28;20780;-72
2021/12/20 10:38:18;;;;;;;4.67;2.27;;;;;;;;;;4976340;28;20030;-73
2021/12/20 10:40:57;;;;;;;4.67;2.20;;;;;;;;;;4958574;28;20471;-75
2021/12/20 10:43:52;;;;;;;3.60;2.20;;;;;;;;;;4962274;28;20043;-72
2021/12/20 10:46:22;;;;;;;4.83;2.60;;;;;;;;;;4960785;28;20041;-73
2021/12/20 10:48:51;;;;;;;3.97;2.00;;;;;;;;;;4966828;28;20035;-74
2021/12/20 10:51:21;;;;;;;8.53;2.53;;;;;;;;;;4966360;28;20031;-76
2021/12/20 10:53:51;;;;;;;7.07;2.40;;;;;;;;;;4960361;28;20130;-75
2021/12/20 10:56:19;;;;;;;2.97;2.37;;;;;;;;;;4959162;28;20027;-72
2021/12/20 10:58:44;;;;;;;4.37;2.57;;;;;;;;;;4963053;28;20643;-74
2021/12/20 11:03:59;;;;;;;12.27;2.37;;;;;;;;;;4966522;28;20066;-75
2021/12/20 11:06:36;;;;;;;6.53;2.00;;;;;;;;;;4975809;28;20117;-72
2021/12/20 11:09:09;;;;;;;6.40;2.50;;;;;;;;;;4965143;28;20034;-75
2021/12/20 11:11:39;;;;;;;3.97;2.13;;;;;;;;;;4977573;28;20088;-72
2021/12/20 11:14:06;;;;;;;2.30;1.70;;;;;;;;;;4965924;28;20035;-74
2021/12/20 11:16:53;;;;;;;6.53;2.60;;;;;;;;;;4962449;28;20240;-72
2021/12/20 11:19:26;;;;;;;5.60;2.20;;;;;;;;;;4960832;28;20023;-73
2021/12/20 11:21:55;;;;;;;12.87;2.07;;;;;;;;;;4969133;28;20106;-73
2021/12/20 11:24:39;;;;;;;11.17;3.40;;;;;;;;;;4970520;28;20029;-75
2021/12/20 11:27:10;;;;;;;4.17;2.17;;;;;;;;;;4965846;28;20157;-75
2021/12/20 11:29:39;;;;;;;5.93;2.07;;;;;;;;;;4959968;28;20125;-73
2021/12/20 11:32:05;;;;;;;4.33;2.50;;;;;;;;;;4962416;28;20031;-75
2021/12/20 11:34:45;;;;;;;10.73;2.50;;;;;;;;;;5111586;27;20906;-73
2021/12/20 11:37:16;;;;;;;4.20;2.20;;;;;;;;;;5105556;28;20127;-74
2021/12/20 11:39:42;;;;;;;6.80;2.53;;;;;;;;;;5104229;28;20036;-74
2021/12/20 11:42:08;;;;;;;7.17;2.70;;;;;;;;;;5098653;28;20098;-73
2021/12/20 11:44:36;;;;;;;5.50;2.23;;;;;;;;;;5091173;28;20087;-75
2021/12/20 11:47:27;;;;;;;2.80;1.73;;;;;;;;;;5089084;28;20035;-73
2021/12/20 11:50:05;;;;;;;5.63;2.70;;;;;;;;;;5094451;28;20031;-73
2021/12/20 11:52:37;;;;;;;9.47;2.50;;;;;;;;;;5089447;28;20146;-73
2021/12/20 11:55:29;;;;;;;6.47;2.70;;;;;;;;;;5084515;28;20039;-73
2021/12/20 11:58:00;;;;;;;8.63;3.63;;;;;;;;;;5090389;28;20032;-72
2021/12/20 12:00:32;;;;;;;8.83;2.70;;;;;;;;;;5098754;28;20149;-73
2021/12/20 12:03:19;;;;;;;6.88;3.15;;;;;;;;;;5091644;28;20046;-74
2021/12/20 12:05:54;;;;;;;11.70;3.30;;;;;;;;;;5092600;28;20036;-74
2021/12/20 12:08:43;;;;;;;11.30;3.30;;;;;;;;;;5093309;28;20099;-72
2021/12/20 12:11:09;;;;;;;5.13;2.40;;;;;;;;;;5099161;28;20379;-73
2021/12/20 12:13:46;;;;;;;6.20;2.90;;;;;;;;;;5100232;28;20027;-73
2021/12/20 12:16:29;;;;;;;3.80;2.10;;;;;;;;;;5084029;28;20028;-73
2021/12/20 12:18:57;;;;;;;6.17;2.77;;;;;;;;;;5093463;28;20028;-73
2021/12/20 12:21:32;;;;;;;9.97;2.40;;;;;;;;;;5085032;28;20035;-73
2021/12/20 12:23:59;;;;;;;4.37;2.50;;;;;;;;;;5094587;28;21137;-73
2021/12/20 12:26:38;;;;;;;3.90;2.00;;;;;;;;;;5077552;28;20024;-73
2021/12/20 12:29:05;;;;;;;9.17;3.37;;;;;;;;;;5075393;28;20040;-74
2021/12/20 12:32:00;;;;;;;6.17;2.87;;;;;;;;;;5068346;28;20365;-74
2021/12/20 12:34:49;;;;;;;8.30;3.20;;;;;;;;;;5071151;28;20086;-73
2021/12/20 12:37:25;;;;;;;4.97;2.07;;;;;;;;;;5071583;28;20040;-75
2021/12/20 12:39:51;;;;;;;21.20;3.60;;;;;;;;;;5071991;28;20127;-72
2021/12/20 12:42:17;;;;;;;6.07;3.43;;;;;;;;;;5073506;28;20032;-73
2021/12/20 12:44:51;;;;;;;7.37;3.80;;;;;;;;;;5060379;28;20037;-74
2021/12/20 12:47:34;;;;;;;4.57;2.83;;;;;;;;;;5054132;28;20032;-73
2021/12/20 12:50:00;;;;;;;7.23;3.73;;;;;;;;;;5056612;28;20819;-74
2021/12/20 12:52:33;;;;;;;7.90;3.87;;;;;;;;;;5056506;28;20369;-75
2021/12/20 12:55:04;;;;;;;4.37;2.73;;;;;;;;;;5059547;28;20032;-72
2021/12/20 12:57:38;;;;;;;6.47;3.40;;;;;;;;;;5053072;28;20039;-71
2021/12/20 13:00:23;;;;;;;11.37;5.37;;;;;;;;;;5055375;28;20055;-73
2021/12/20 13:02:51;;;;;;;8.20;3.70;;;;;;;;;;5051134;28;20031;-71
2021/12/20 13:05:23;;;;;;;7.20;3.43;;;;;;;;;;5060282;28;20055;-73
2021/12/20 13:08:03;;;;;;;6.72;3.00;;;;;;;;;;5060206;28;21817;-72
2021/12/20 13:10:40;;;;;;;8.97;3.53;;;;;;;;;;5054263;28;20123;-74
2021/12/20 13:15:53;;;;;;;6.63;3.87;;;;;;;;;;5054873;28;20036;-73
2021/12/20 13:18:30;;;;;;;5.97;3.60;;;;;;;;;;5061136;28;20036;-74
2021/12/20 13:21:02;;;;;;;11.20;3.67;;;;;;;;;;5057209;28;21254;-75
2021/12/20 13:23:35;;;;;;;15.73;4.43;;;;;;;;;;5058858;28;20070;-72
2021/12/20 13:26:05;;;;;;;5.57;3.97;;;;;;;;;;5058766;28;21908;-72
2021/12/20 13:28:42;;;;;;;8.43;4.20;;;;;;;;;;5063427;28;20923;-73
2021/12/20 13:31:21;;;;;;;8.77;3.77;;;;;;;;;;5054983;28;20036;-74
2021/12/20 13:33:56;;;;;;;9.93;4.07;;;;;;;;;;5050252;28;20072;-72
2021/12/20 13:36:25;;;;;;;7.37;3.93;;;;;;;;;;5069780;28;20193;-74
2021/12/20 13:38:55;;;;;;;9.70;4.00;;;;;;;;;;5057535;28;20032;-72
2021/12/20 13:41:23;;;;;;;7.10;3.30;;;;;;;;;;5055640;28;20035;-72
2021/12/20 13:43:53;;;;;;;10.53;3.40;;;;;;;;;;5057225;28;20024;-72
2021/12/20 13:46:31;;;;;;;7.77;3.53;;;;;;;;;;5061411;28;20048;-72
2021/12/20 13:49:18;;;;;;;8.97;3.87;;;;;;;;;;5060670;28;20082;-73
2021/12/20 13:51:49;;;;;;;4.93;2.90;;;;;;;;;;5066272;28;20099;-74
2021/12/20 13:54:23;;;;;;;5.63;3.13;;;;;;;;;;5063219;28;20043;-73
2021/12/20 13:57:16;;;;;;;8.17;3.57;;;;;;;;;;5063997;28;20083;-74
2021/12/20 13:59:57;;;;;;;7.03;3.70;;;;;;;;;;5057668;28;20423;-72
2021/12/20 14:02:25;;;;;;;10.47;3.43;;;;;;;;;;5054754;28;20093;-74
2021/12/20 14:04:58;;;;;;;5.33;3.23;;;;;;;;;;5053332;28;20033;-72
2021/12/20 14:07:38;;;;;;;7.93;3.50;;;;;;;;;;5043167;28;20670;-72
2021/12/20 14:10:16;;;;;;;6.87;3.80;;;;;;;;;;5041852;28;21444;-73
2021/12/20 14:12:54;;;;;;;7.37;3.30;;;;;;;;;;5062024;28;20059;-74
2021/12/20 14:15:22;;;;;;;6.83;3.37;;;;;;;;;;5059118;28;20284;-74
2021/12/20 14:18:03;;;;;;;5.13;3.50;;;;;;;;;;5055828;28;20580;-72
2021/12/20 14:20:45;;;;;;;10.30;3.60;;;;;;;;;;5071087;28;20124;-73
2021/12/20 14:23:17;;;;;;;8.02;3.17;;;;;;;;;;5062079;28;20250;-72
2021/12/20 14:25:48;;;;;;;11.97;5.00;;;;;;;;;;5062358;28;20192;-73
2021/12/20 14:28:17;;;;;;;7.47;3.65;;;;;;;;;;5061839;28;20126;-75
2021/12/20 14:31:01;;;;;;;8.73;3.63;;;;;;;;;;5061639;28;20044;-73
2021/12/20 14:33:30;;;;;;;7.63;3.17;;;;;;;;;;5061139;28;20040;-74
2021/12/20 14:35:59;;;;;;;6.43;3.20;;;;;;;;;;5061280;28;20036;-74
2021/12/20 14:38:35;;;;;;;8.27;3.87;;;;;;;;;;5061248;28;20066;-73
2021/12/20 14:41:19;;;;;;;17.33;4.53;;;;;;;;;;5058706;28;20039;-73
2021/12/20 14:43:47;;;;;;;9.57;3.93;;;;;;;;;;5045714;28;20037;-74
2021/12/20 14:46:48;;;;;;;7.33;3.60;;;;;;;;;;5061899;28;20029;-74
2021/12/20 14:49:22;;;;;;;5.93;3.63;;;;;;;;;;5060025;28;20035;-74
2021/12/20 14:51:49;;;;;;;13.43;4.43;;;;;;;;;;5057909;28;20124;-73
2021/12/20 14:54:16;;;;;;;6.67;3.67;;;;;;;;;;5061276;28;20043;-75
2021/12/20 14:57:00;;;;;;;7.10;3.50;;;;;;;;;;5058072;28;20036;-75
2021/12/20 14:59:32;;;;;;;8.17;3.30;;;;;;;;;;5060619;28;20517;-73
2021/12/20 15:02:00;;;;;;;22.60;6.90;;;;;;;;;;5041585;28;20060;-74
2021/12/20 15:04:27;;;;;;;12.33;3.90;;;;;;;;;;5059903;28;20029;-73
2021/12/20 15:06:55;;;;;;;15.10;4.03;;;;;;;;;;5059029;28;20020;-74
2021/12/20 15:09:22;;;;;;;7.33;3.47;;;;;;;;;;5059738;28;20416;-74
2021/12/20 15:11:48;;;;;;;4.53;3.30;;;;;;;;;;5060918;28;20096;-72
2021/12/20 15:14:14;;;;;;;4.37;3.00;;;;;;;;;;5060969;28;20029;-74